Pagina principale
METAR-TAF:

METAR-TAF

Aeroporti :

Seghedino, Ungheria

latitudine: 46-15N, longitudine: 020-06E, altezza: 82 m

Osservazione

Il bollettino è stato emesso 43 minuti fa, alle 12:15 UTC
Vento 11 kt da sud
Temperature 0°C
Umidità 93%
Pressione 1008 hPa
Visibilità: 6000 m
Poco nuvoloso ad un'altezza di 600 ft
Nuvoloso ad un'altezza di 3600 ft

METAR: LHUD 161215Z 17011KT 6000 FEW006 BKN036 M00/M01 Q1008

Ora: 13:58 (12:58 UTC)


TAF: mancante

Osservazioni e previsioni meteorologiche di più di 4000 aeroporti (messaggi METAR e TAF).

Le stazioni disponibili sono rappresentate dai dischi gialli e rossi sulla carta.

Puntare il mouse per vedere il nome della stazione.

Clicca sopra per visualizzare le osservazioni e previsioni meteorologiche.

Per cambiare la mappa : fare clic sui pulsanti verdi con una croce nera per ingrandire, il pulsante verde con un trattino per diminuire, o sulla freccia verde per le mappe adiacenti.


METAR-TAF: